sensor_id;sensor_type;location;lat;lon;timestamp;P1;durP1;ratioP1;P2;durP2;ratioP2
12818;SDS011;6474;53.474;9.894;2022-09-09T00:00:40;5.43;;;4.23;;
12818;SDS011;6474;53.474;9.894;2022-09-09T00:03:14;8.23;;;4.57;;
12818;SDS011;6474;53.474;9.894;2022-09-09T00:05:48;4.50;;;4.10;;
12818;SDS011;6474;53.474;9.894;2022-09-09T00:08:26;5.47;;;4.57;;
12818;SDS011;6474;53.474;9.894;2022-09-09T00:11:01;4.07;;;3.77;;
12818;SDS011;6474;53.474;9.894;2022-09-09T00:13:36;4.43;;;4.13;;
12818;SDS011;6474;53.474;9.894;2022-09-09T00:16:10;4.27;;;3.97;;
12818;SDS011;6474;53.474;9.894;2022-09-09T00:18:47;3.97;;;3.67;;
12818;SDS011;6474;53.474;9.894;2022-09-09T00:21:21;5.37;;;4.93;;
12818;SDS011;6474;53.474;9.894;2022-09-09T00:23:53;4.33;;;3.93;;
12818;SDS011;6474;53.474;9.894;2022-09-09T00:26:22;3.80;;;3.60;;
12818;SDS011;6474;53.474;9.894;2022-09-09T00:29:00;5.33;;;4.27;;
12818;SDS011;6474;53.474;9.894;2022-09-09T00:31:32;4.33;;;3.97;;
12818;SDS011;6474;53.474;9.894;2022-09-09T00:34:03;4.70;;;4.30;;
12818;SDS011;6474;53.474;9.894;2022-09-09T00:36:39;6.93;;;4.50;;
12818;SDS011;6474;53.474;9.894;2022-09-09T00:39:09;5.07;;;4.40;;
12818;SDS011;6474;53.474;9.894;2022-09-09T00:41:47;4.87;;;4.20;;
12818;SDS011;6474;53.474;9.894;2022-09-09T00:44:28;3.93;;;3.60;;
12818;SDS011;6474;53.474;9.894;2022-09-09T00:47:04;3.93;;;3.63;;
12818;SDS011;6474;53.474;9.894;2022-09-09T00:49:48;3.60;;;3.37;;
12818;SDS011;6474;53.474;9.894;2022-09-09T00:52:31;4.30;;;3.90;;
12818;SDS011;6474;53.474;9.894;2022-09-09T00:55:07;4.53;;;3.87;;
12818;SDS011;6474;53.474;9.894;2022-09-09T00:57:39;4.30;;;4.00;;
12818;SDS011;6474;53.474;9.894;2022-09-09T01:00:19;4.73;;;4.33;;
12818;SDS011;6474;53.474;9.894;2022-09-09T01:03:02;4.60;;;4.27;;
12818;SDS011;6474;53.474;9.894;2022-09-09T01:05:48;5.73;;;4.90;;
12818;SDS011;6474;53.474;9.894;2022-09-09T01:08:28;4.63;;;4.13;;
12818;SDS011;6474;53.474;9.894;2022-09-09T01:11:09;3.53;;;3.33;;
12818;SDS011;6474;53.474;9.894;2022-09-09T01:13:44;3.53;;;3.23;;
12818;SDS011;6474;53.474;9.894;2022-09-09T01:16:16;3.80;;;3.60;;
12818;SDS011;6474;53.474;9.894;2022-09-09T01:18:45;2.93;;;2.73;;
12818;SDS011;6474;53.474;9.894;2022-09-09T01:21:19;3.97;;;3.40;;
12818;SDS011;6474;53.474;9.894;2022-09-09T01:24:00;5.03;;;3.97;;
12818;SDS011;6474;53.474;9.894;2022-09-09T01:26:39;4.57;;;4.27;;
12818;SDS011;6474;53.474;9.894;2022-09-09T01:29:08;3.63;;;3.43;;
12818;SDS011;6474;53.474;9.894;2022-09-09T01:31:40;3.90;;;3.70;;
12818;SDS011;6474;53.474;9.894;2022-09-09T01:34:10;4.93;;;3.80;;
12818;SDS011;6474;53.474;9.894;2022-09-09T01:36:40;4.50;;;3.23;;
12818;SDS011;6474;53.474;9.894;2022-09-09T01:39:10;4.10;;;3.80;;
12818;SDS011;6474;53.474;9.894;2022-09-09T01:41:40;5.70;;;4.30;;
12818;SDS011;6474;53.474;9.894;2022-09-09T01:44:08;3.57;;;3.30;;
12818;SDS011;6474;53.474;9.894;2022-09-09T01:46:38;4.27;;;3.97;;
12818;SDS011;6474;53.474;9.894;2022-09-09T01:49:06;3.87;;;3.67;;
12818;SDS011;6474;53.474;9.894;2022-09-09T01:51:35;3.23;;;3.03;;
12818;SDS011;6474;53.474;9.894;2022-09-09T01:54:06;3.70;;;3.50;;
12818;SDS011;6474;53.474;9.894;2022-09-09T01:56:36;4.00;;;3.70;;
12818;SDS011;6474;53.474;9.894;2022-09-09T01:59:15;3.50;;;3.30;;
12818;SDS011;6474;53.474;9.894;2022-09-09T02:01:57;4.10;;;3.70;;
12818;SDS011;6474;53.474;9.894;2022-09-09T02:04:38;3.90;;;3.60;;
12818;SDS011;6474;53.474;9.894;2022-09-09T02:07:11;3.70;;;3.47;;
12818;SDS011;6474;53.474;9.894;2022-09-09T02:10:05;4.30;;;3.90;;
12818;SDS011;6474;53.474;9.894;2022-09-09T02:12:39;4.20;;;3.80;;
12818;SDS011;6474;53.474;9.894;2022-09-09T02:15:12;9.03;;;4.07;;
12818;SDS011;6474;53.474;9.894;2022-09-09T02:17:44;4.13;;;3.83;;
12818;SDS011;6474;53.474;9.894;2022-09-09T02:20:15;4.50;;;4.10;;
12818;SDS011;6474;53.474;9.894;2022-09-09T02:22:46;4.47;;;4.17;;
12818;SDS011;6474;53.474;9.894;2022-09-09T02:25:17;4.07;;;3.77;;
12818;SDS011;6474;53.474;9.894;2022-09-09T02:27:49;4.53;;;4.20;;
12818;SDS011;6474;53.474;9.894;2022-09-09T02:30:18;4.03;;;3.50;;
12818;SDS011;6474;53.474;9.894;2022-09-09T02:32:48;4.20;;;3.90;;
12818;SDS011;6474;53.474;9.894;2022-09-09T02:35:23;4.90;;;4.40;;
12818;SDS011;6474;53.474;9.894;2022-09-09T02:37:53;4.53;;;4.00;;
12818;SDS011;6474;53.474;9.894;2022-09-09T02:40:25;5.47;;;4.53;;
12818;SDS011;6474;53.474;9.894;2022-09-09T02:42:54;4.60;;;4.20;;
12818;SDS011;6474;53.474;9.894;2022-09-09T02:45:23;3.77;;;3.47;;
12818;SDS011;6474;53.474;9.894;2022-09-09T02:47:55;4.10;;;3.67;;
12818;SDS011;6474;53.474;9.894;2022-09-09T02:50:31;4.27;;;3.87;;
12818;SDS011;6474;53.474;9.894;2022-09-09T02:53:04;4.27;;;3.90;;
12818;SDS011;6474;53.474;9.894;2022-09-09T02:55:38;3.97;;;3.43;;
12818;SDS011;6474;53.474;9.894;2022-09-09T02:58:10;4.47;;;4.07;;
12818;SDS011;6474;53.474;9.894;2022-09-09T03:00:43;4.37;;;4.00;;
12818;SDS011;6474;53.474;9.894;2022-09-09T03:03:12;4.70;;;4.30;;
12818;SDS011;6474;53.474;9.894;2022-09-09T03:05:42;3.83;;;3.47;;
12818;SDS011;6474;53.474;9.894;2022-09-09T03:08:10;4.10;;;3.80;;
12818;SDS011;6474;53.474;9.894;2022-09-09T03:10:39;3.43;;;3.20;;
12818;SDS011;6474;53.474;9.894;2022-09-09T03:13:07;4.00;;;3.77;;
12818;SDS011;6474;53.474;9.894;2022-09-09T03:15:38;4.17;;;3.77;;
12818;SDS011;6474;53.474;9.894;2022-09-09T03:18:06;3.27;;;3.17;;
12818;SDS011;6474;53.474;9.894;2022-09-09T03:20:34;4.20;;;3.90;;
12818;SDS011;6474;53.474;9.894;2022-09-09T03:23:02;6.73;;;4.43;;
12818;SDS011;6474;53.474;9.894;2022-09-09T03:25:30;3.80;;;3.50;;
12818;SDS011;6474;53.474;9.894;2022-09-09T03:27:58;3.83;;;3.53;;
12818;SDS011;6474;53.474;9.894;2022-09-09T03:30:27;10.87;;;3.53;;
12818;SDS011;6474;53.474;9.894;2022-09-09T03:32:55;3.90;;;3.63;;
12818;SDS011;6474;53.474;9.894;2022-09-09T03:35:23;5.30;;;3.87;;
12818;SDS011;6474;53.474;9.894;2022-09-09T03:37:51;3.90;;;3.60;;
12818;SDS011;6474;53.474;9.894;2022-09-09T03:40:21;4.20;;;3.90;;
12818;SDS011;6474;53.474;9.894;2022-09-09T03:42:58;3.03;;;2.93;;
12818;SDS011;6474;53.474;9.894;2022-09-09T03:45:26;3.40;;;3.10;;
12818;SDS011;6474;53.474;9.894;2022-09-09T03:47:53;4.10;;;3.60;;
12818;SDS011;6474;53.474;9.894;2022-09-09T03:50:23;2.93;;;2.80;;
12818;SDS011;6474;53.474;9.894;2022-09-09T03:52:50;3.67;;;3.37;;
12818;SDS011;6474;53.474;9.894;2022-09-09T03:55:18;3.17;;;3.03;;
12818;SDS011;6474;53.474;9.894;2022-09-09T03:57:46;3.37;;;3.17;;
12818;SDS011;6474;53.474;9.894;2022-09-09T04:00:15;3.90;;;3.60;;
12818;SDS011;6474;53.474;9.894;2022-09-09T04:02:43;4.03;;;3.70;;
12818;SDS011;6474;53.474;9.894;2022-09-09T04:05:11;5.03;;;3.90;;
12818;SDS011;6474;53.474;9.894;2022-09-09T04:07:40;3.50;;;3.30;;
12818;SDS011;6474;53.474;9.894;2022-09-09T04:10:08;3.70;;;3.40;;
12818;SDS011;6474;53.474;9.894;2022-09-09T04:12:37;3.20;;;3.00;;
12818;SDS011;6474;53.474;9.894;2022-09-09T04:15:05;3.73;;;3.53;;
12818;SDS011;6474;53.474;9.894;2022-09-09T04:17:35;3.90;;;3.53;;
12818;SDS011;6474;53.474;9.894;2022-09-09T04:20:03;3.30;;;3.10;;
12818;SDS011;6474;53.474;9.894;2022-09-09T04:22:33;3.73;;;3.47;;
12818;SDS011;6474;53.474;9.894;2022-09-09T04:25:01;4.40;;;3.23;;
12818;SDS011;6474;53.474;9.894;2022-09-09T04:27:29;4.47;;;3.73;;
12818;SDS011;6474;53.474;9.894;2022-09-09T04:29:57;3.90;;;3.70;;
12818;SDS011;6474;53.474;9.894;2022-09-09T04:32:24;4.07;;;3.77;;
12818;SDS011;6474;53.474;9.894;2022-09-09T04:34:54;4.03;;;3.60;;
12818;SDS011;6474;53.474;9.894;2022-09-09T04:37:22;3.50;;;3.30;;
12818;SDS011;6474;53.474;9.894;2022-09-09T04:39:50;3.57;;;3.37;;
12818;SDS011;6474;53.474;9.894;2022-09-09T04:42:18;3.63;;;3.43;;
12818;SDS011;6474;53.474;9.894;2022-09-09T04:44:46;4.93;;;3.90;;
12818;SDS011;6474;53.474;9.894;2022-09-09T04:47:14;5.07;;;4.57;;
12818;SDS011;6474;53.474;9.894;2022-09-09T04:49:41;4.23;;;4.00;;
12818;SDS011;6474;53.474;9.894;2022-09-09T04:52:11;3.67;;;3.40;;
12818;SDS011;6474;53.474;9.894;2022-09-09T04:54:38;3.27;;;3.07;;
12818;SDS011;6474;53.474;9.894;2022-09-09T04:57:06;2.00;;;2.00;;
12818;SDS011;6474;53.474;9.894;2022-09-09T04:59:34;2.30;;;2.10;;
12818;SDS011;6474;53.474;9.894;2022-09-09T05:02:01;2.43;;;2.33;;
12818;SDS011;6474;53.474;9.894;2022-09-09T05:04:30;2.40;;;2.30;;
12818;SDS011;6474;53.474;9.894;2022-09-09T05:06:59;2.27;;;2.23;;
12818;SDS011;6474;53.474;9.894;2022-09-09T05:09:30;2.90;;;2.73;;
12818;SDS011;6474;53.474;9.894;2022-09-09T05:11:58;2.77;;;2.67;;
12818;SDS011;6474;53.474;9.894;2022-09-09T05:14:26;2.53;;;2.43;;
12818;SDS011;6474;53.474;9.894;2022-09-09T05:16:54;2.87;;;2.77;;
12818;SDS011;6474;53.474;9.894;2022-09-09T05:19:22;2.37;;;2.27;;
12818;SDS011;6474;53.474;9.894;2022-09-09T05:21:50;2.70;;;2.60;;
12818;SDS011;6474;53.474;9.894;2022-09-09T05:24:18;2.97;;;2.77;;
12818;SDS011;6474;53.474;9.894;2022-09-09T05:26:47;2.60;;;2.50;;
12818;SDS011;6474;53.474;9.894;2022-09-09T05:29:15;2.53;;;2.33;;
12818;SDS011;6474;53.474;9.894;2022-09-09T05:31:45;2.27;;;2.17;;
12818;SDS011;6474;53.474;9.894;2022-09-09T05:34:14;2.77;;;2.67;;
12818;SDS011;6474;53.474;9.894;2022-09-09T05:36:41;2.13;;;2.00;;
12818;SDS011;6474;53.474;9.894;2022-09-09T05:39:09;2.00;;;1.90;;
12818;SDS011;6474;53.474;9.894;2022-09-09T05:41:38;2.33;;;2.23;;
12818;SDS011;6474;53.474;9.894;2022-09-09T05:44:07;2.43;;;2.23;;
12818;SDS011;6474;53.474;9.894;2022-09-09T05:46:35;1.53;;;1.53;;
12818;SDS011;6474;53.474;9.894;2022-09-09T05:49:03;1.63;;;1.40;;
12818;SDS011;6474;53.474;9.894;2022-09-09T05:51:31;5.10;;;1.80;;
12818;SDS011;6474;53.474;9.894;2022-09-09T05:53:59;1.47;;;1.47;;
12818;SDS011;6474;53.474;9.894;2022-09-09T05:56:27;1.27;;;1.27;;
12818;SDS011;6474;53.474;9.894;2022-09-09T05:58:56;1.40;;;1.40;;
12818;SDS011;6474;53.474;9.894;2022-09-09T06:01:28;1.17;;;1.17;;
12818;SDS011;6474;53.474;9.894;2022-09-09T06:03:57;4.23;;;1.37;;
12818;SDS011;6474;53.474;9.894;2022-09-09T06:06:25;1.50;;;1.50;;
12818;SDS011;6474;53.474;9.894;2022-09-09T06:08:55;1.47;;;1.47;;
12818;SDS011;6474;53.474;9.894;2022-09-09T06:11:25;1.23;;;1.23;;
12818;SDS011;6474;53.474;9.894;2022-09-09T06:13:57;1.50;;;1.50;;
12818;SDS011;6474;53.474;9.894;2022-09-09T06:16:25;1.00;;;1.00;;
12818;SDS011;6474;53.474;9.894;2022-09-09T06:18:56;1.53;;;1.43;;
12818;SDS011;6474;53.474;9.894;2022-09-09T06:21:25;1.30;;;1.30;;
12818;SDS011;6474;53.474;9.894;2022-09-09T06:23:55;1.30;;;1.30;;
12818;SDS011;6474;53.474;9.894;2022-09-09T06:26:27;1.23;;;1.23;;
12818;SDS011;6474;53.474;9.894;2022-09-09T06:28:57;1.77;;;1.77;;
12818;SDS011;6474;53.474;9.894;2022-09-09T06:31:26;1.63;;;1.47;;
12818;SDS011;6474;53.474;9.894;2022-09-09T06:33:57;1.13;;;1.13;;
12818;SDS011;6474;53.474;9.894;2022-09-09T06:36:26;1.60;;;1.60;;
12818;SDS011;6474;53.474;9.894;2022-09-09T06:38:55;2.93;;;1.50;;
12818;SDS011;6474;53.474;9.894;2022-09-09T06:41:24;1.20;;;1.20;;
12818;SDS011;6474;53.474;9.894;2022-09-09T06:43:53;1.17;;;1.17;;
12818;SDS011;6474;53.474;9.894;2022-09-09T06:46:23;1.20;;;1.20;;
12818;SDS011;6474;53.474;9.894;2022-09-09T06:48:55;1.30;;;1.30;;
12818;SDS011;6474;53.474;9.894;2022-09-09T06:51:26;1.30;;;1.30;;
12818;SDS011;6474;53.474;9.894;2022-09-09T06:53:55;1.97;;;1.20;;
12818;SDS011;6474;53.474;9.894;2022-09-09T06:56:25;1.37;;;1.37;;
12818;SDS011;6474;53.474;9.894;2022-09-09T06:58:54;1.50;;;1.40;;
12818;SDS011;6474;53.474;9.894;2022-09-09T07:01:24;1.03;;;1.03;;
12818;SDS011;6474;53.474;9.894;2022-09-09T07:03:56;1.60;;;1.50;;
12818;SDS011;6474;53.474;9.894;2022-09-09T07:06:25;1.33;;;1.33;;
12818;SDS011;6474;53.474;9.894;2022-09-09T07:08:55;0.93;;;0.93;;
12818;SDS011;6474;53.474;9.894;2022-09-09T07:11:25;1.10;;;1.10;;
12818;SDS011;6474;53.474;9.894;2022-09-09T07:13:54;1.20;;;1.20;;
12818;SDS011;6474;53.474;9.894;2022-09-09T07:16:24;0.97;;;0.97;;
12818;SDS011;6474;53.474;9.894;2022-09-09T07:18:53;1.10;;;1.10;;
12818;SDS011;6474;53.474;9.894;2022-09-09T07:21:24;1.10;;;1.10;;
12818;SDS011;6474;53.474;9.894;2022-09-09T07:23:53;1.10;;;1.10;;
12818;SDS011;6474;53.474;9.894;2022-09-09T07:26:22;0.90;;;0.90;;
12818;SDS011;6474;53.474;9.894;2022-09-09T07:28:51;0.80;;;0.80;;
12818;SDS011;6474;53.474;9.894;2022-09-09T07:31:21;1.40;;;1.30;;
12818;SDS011;6474;53.474;9.894;2022-09-09T07:33:50;1.10;;;1.10;;
12818;SDS011;6474;53.474;9.894;2022-09-09T07:36:20;1.47;;;1.43;;
12818;SDS011;6474;53.474;9.894;2022-09-09T07:38:50;1.17;;;1.17;;
12818;SDS011;6474;53.474;9.894;2022-09-09T07:41:20;0.80;;;0.80;;
12818;SDS011;6474;53.474;9.894;2022-09-09T07:43:49;1.20;;;1.20;;
12818;SDS011;6474;53.474;9.894;2022-09-09T07:46:18;0.80;;;0.80;;
12818;SDS011;6474;53.474;9.894;2022-09-09T07:48:47;1.40;;;1.40;;
12818;SDS011;6474;53.474;9.894;2022-09-09T07:51:18;1.13;;;1.13;;
12818;SDS011;6474;53.474;9.894;2022-09-09T07:53:51;0.90;;;0.90;;
12818;SDS011;6474;53.474;9.894;2022-09-09T07:56:20;1.00;;;1.00;;
12818;SDS011;6474;53.474;9.894;2022-09-09T07:58:48;1.07;;;1.07;;
12818;SDS011;6474;53.474;9.894;2022-09-09T08:01:19;1.00;;;1.00;;
12818;SDS011;6474;53.474;9.894;2022-09-09T08:03:52;0.97;;;0.97;;
12818;SDS011;6474;53.474;9.894;2022-09-09T08:06:23;1.00;;;1.00;;
12818;SDS011;6474;53.474;9.894;2022-09-09T08:08:51;0.80;;;0.80;;
12818;SDS011;6474;53.474;9.894;2022-09-09T08:11:18;0.80;;;0.80;;
12818;SDS011;6474;53.474;9.894;2022-09-09T08:13:46;1.60;;;0.87;;
12818;SDS011;6474;53.474;9.894;2022-09-09T08:16:20;0.80;;;0.80;;
12818;SDS011;6474;53.474;9.894;2022-09-09T08:18:49;0.73;;;0.73;;
12818;SDS011;6474;53.474;9.894;2022-09-09T08:21:18;0.87;;;0.87;;
12818;SDS011;6474;53.474;9.894;2022-09-09T08:23:50;0.70;;;0.70;;
12818;SDS011;6474;53.474;9.894;2022-09-09T08:26:24;0.70;;;0.70;;
12818;SDS011;6474;53.474;9.894;2022-09-09T08:28:55;0.70;;;0.70;;
12818;SDS011;6474;53.474;9.894;2022-09-09T08:31:24;0.77;;;0.77;;
12818;SDS011;6474;53.474;9.894;2022-09-09T08:33:54;0.70;;;0.70;;
12818;SDS011;6474;53.474;9.894;2022-09-09T08:36:23;0.80;;;0.80;;
12818;SDS011;6474;53.474;9.894;2022-09-09T08:38:54;1.00;;;1.00;;
12818;SDS011;6474;53.474;9.894;2022-09-09T08:41:28;1.03;;;0.90;;
12818;SDS011;6474;53.474;9.894;2022-09-09T08:44:05;0.75;;;0.75;;
12818;SDS011;6474;53.474;9.894;2022-09-09T08:46:40;0.77;;;0.77;;
12818;SDS011;6474;53.474;9.894;2022-09-09T08:49:18;0.80;;;0.80;;
12818;SDS011;6474;53.474;9.894;2022-09-09T08:51:54;0.80;;;0.80;;
12818;SDS011;6474;53.474;9.894;2022-09-09T08:54:25;0.70;;;0.70;;
12818;SDS011;6474;53.474;9.894;2022-09-09T08:57:19;0.70;;;0.70;;
12818;SDS011;6474;53.474;9.894;2022-09-09T08:59:52;0.50;;;0.50;;
12818;SDS011;6474;53.474;9.894;2022-09-09T09:02:24;0.50;;;0.50;;
12818;SDS011;6474;53.474;9.894;2022-09-09T09:05:05;0.70;;;0.70;;
12818;SDS011;6474;53.474;9.894;2022-09-09T09:07:46;0.40;;;0.40;;
12818;SDS011;6474;53.474;9.894;2022-09-09T09:10:30;0.60;;;0.60;;
12818;SDS011;6474;53.474;9.894;2022-09-09T09:13:11;0.52;;;0.52;;
12818;SDS011;6474;53.474;9.894;2022-09-09T09:15:42;3.50;;;0.80;;
12818;SDS011;6474;53.474;9.894;2022-09-09T09:18:16;0.55;;;0.55;;
12818;SDS011;6474;53.474;9.894;2022-09-09T09:20:47;0.40;;;0.40;;
12818;SDS011;6474;53.474;9.894;2022-09-09T09:23:21;0.57;;;0.57;;
12818;SDS011;6474;53.474;9.894;2022-09-09T09:25:52;0.50;;;0.50;;
12818;SDS011;6474;53.474;9.894;2022-09-09T09:28:24;0.63;;;0.55;;
12818;SDS011;6474;53.474;9.894;2022-09-09T09:30:53;0.75;;;0.57;;
12818;SDS011;6474;53.474;9.894;2022-09-09T09:33:26;0.50;;;0.50;;
12818;SDS011;6474;53.474;9.894;2022-09-09T09:35:58;0.40;;;0.40;;
12818;SDS011;6474;53.474;9.894;2022-09-09T09:38:27;0.52;;;0.52;;
12818;SDS011;6474;53.474;9.894;2022-09-09T09:41:17;0.43;;;0.43;;
12818;SDS011;6474;53.474;9.894;2022-09-09T09:43:56;0.32;;;0.32;;
12818;SDS011;6474;53.474;9.894;2022-09-09T09:46:25;0.50;;;0.50;;
12818;SDS011;6474;53.474;9.894;2022-09-09T09:48:57;0.38;;;0.38;;
12818;SDS011;6474;53.474;9.894;2022-09-09T09:51:26;0.47;;;0.47;;
12818;SDS011;6474;53.474;9.894;2022-09-09T09:54:02;0.25;;;0.25;;
12818;SDS011;6474;53.474;9.894;2022-09-09T09:56:37;0.50;;;0.50;;
12818;SDS011;6474;53.474;9.894;2022-09-09T09:59:05;0.38;;;0.38;;
12818;SDS011;6474;53.474;9.894;2022-09-09T10:02:16;0.40;;;0.40;;
12818;SDS011;6474;53.474;9.894;2022-09-09T10:04:47;0.45;;;0.45;;
12818;SDS011;6474;53.474;9.894;2022-09-09T10:07:17;0.50;;;0.50;;
12818;SDS011;6474;53.474;9.894;2022-09-09T10:09:46;0.30;;;0.30;;
12818;SDS011;6474;53.474;9.894;2022-09-09T10:12:23;0.30;;;0.30;;
12818;SDS011;6474;53.474;9.894;2022-09-09T10:14:58;0.43;;;0.43;;
12818;SDS011;6474;53.474;9.894;2022-09-09T10:17:33;0.30;;;0.30;;
12818;SDS011;6474;53.474;9.894;2022-09-09T10:20:15;0.40;;;0.40;;
12818;SDS011;6474;53.474;9.894;2022-09-09T10:22:51;0.40;;;0.40;;
12818;SDS011;6474;53.474;9.894;2022-09-09T10:28:28;0.63;;;0.20;;
12818;SDS011;6474;53.474;9.894;2022-09-09T10:31:12;0.43;;;0.43;;
12818;SDS011;6474;53.474;9.894;2022-09-09T10:33:50;0.60;;;0.60;;
12818;SDS011;6474;53.474;9.894;2022-09-09T10:36:23;0.30;;;0.30;;
12818;SDS011;6474;53.474;9.894;2022-09-09T10:38:52;0.30;;;0.30;;
12818;SDS011;6474;53.474;9.894;2022-09-09T10:41:31;0.40;;;0.40;;
12818;SDS011;6474;53.474;9.894;2022-09-09T10:47:08;0.40;;;0.40;;
12818;SDS011;6474;53.474;9.894;2022-09-09T10:49:50;1.52;;;0.80;;
12818;SDS011;6474;53.474;9.894;2022-09-09T10:52:28;0.47;;;0.47;;
12818;SDS011;6474;53.474;9.894;2022-09-09T10:55:06;0.60;;;0.60;;
12818;SDS011;6474;53.474;9.894;2022-09-09T10:57:39;0.70;;;0.68;;
12818;SDS011;6474;53.474;9.894;2022-09-09T11:00:15;0.60;;;0.60;;
12818;SDS011;6474;53.474;9.894;2022-09-09T11:02:47;0.68;;;0.68;;
12818;SDS011;6474;53.474;9.894;2022-09-09T11:05:20;0.30;;;0.30;;
12818;SDS011;6474;53.474;9.894;2022-09-09T11:07:52;0.50;;;0.50;;
12818;SDS011;6474;53.474;9.894;2022-09-09T11:10:24;0.68;;;0.68;;
12818;SDS011;6474;53.474;9.894;2022-09-09T11:12:59;0.60;;;0.60;;
12818;SDS011;6474;53.474;9.894;2022-09-09T11:15:35;0.60;;;0.60;;
12818;SDS011;6474;53.474;9.894;2022-09-09T11:18:09;0.60;;;0.60;;
12818;SDS011;6474;53.474;9.894;2022-09-09T11:20:42;0.80;;;0.80;;
12818;SDS011;6474;53.474;9.894;2022-09-09T11:23:13;0.73;;;0.73;;
12818;SDS011;6474;53.474;9.894;2022-09-09T11:25:45;0.60;;;0.60;;
12818;SDS011;6474;53.474;9.894;2022-09-09T11:28:28;0.60;;;0.60;;
12818;SDS011;6474;53.474;9.894;2022-09-09T11:31:13;0.70;;;0.70;;
12818;SDS011;6474;53.474;9.894;2022-09-09T11:34:07;0.68;;;0.68;;
12818;SDS011;6474;53.474;9.894;2022-09-09T11:36:50;0.60;;;0.60;;
12818;SDS011;6474;53.474;9.894;2022-09-09T11:42:31;0.50;;;0.50;;
12818;SDS011;6474;53.474;9.894;2022-09-09T11:45:08;0.63;;;0.63;;
12818;SDS011;6474;53.474;9.894;2022-09-09T11:47:38;0.60;;;0.60;;
12818;SDS011;6474;53.474;9.894;2022-09-09T11:50:09;1.55;;;0.70;;
12818;SDS011;6474;53.474;9.894;2022-09-09T11:53:03;0.63;;;0.63;;
12818;SDS011;6474;53.474;9.894;2022-09-09T11:55:59;0.40;;;0.40;;
12818;SDS011;6474;53.474;9.894;2022-09-09T11:58:30;0.60;;;0.60;;
12818;SDS011;6474;53.474;9.894;2022-09-09T12:01:14;0.70;;;0.70;;
12818;SDS011;6474;53.474;9.894;2022-09-09T12:03:55;0.70;;;0.70;;
12818;SDS011;6474;53.474;9.894;2022-09-09T12:06:49;0.70;;;0.70;;
12818;SDS011;6474;53.474;9.894;2022-09-09T12:09:22;0.80;;;0.80;;
12818;SDS011;6474;53.474;9.894;2022-09-09T12:12:04;0.60;;;0.60;;
12818;SDS011;6474;53.474;9.894;2022-09-09T12:14:35;0.63;;;0.63;;
12818;SDS011;6474;53.474;9.894;2022-09-09T12:17:09;0.88;;;0.88;;
12818;SDS011;6474;53.474;9.894;2022-09-09T12:19:46;0.60;;;0.60;;
12818;SDS011;6474;53.474;9.894;2022-09-09T12:22:17;0.85;;;0.57;;
12818;SDS011;6474;53.474;9.894;2022-09-09T12:24:54;0.40;;;0.40;;
12818;SDS011;6474;53.474;9.894;2022-09-09T12:27:31;0.90;;;0.80;;
12818;SDS011;6474;53.474;9.894;2022-09-09T12:30:03;0.55;;;0.55;;
12818;SDS011;6474;53.474;9.894;2022-09-09T12:32:36;0.50;;;0.50;;
12818;SDS011;6474;53.474;9.894;2022-09-09T12:35:09;0.50;;;0.50;;
12818;SDS011;6474;53.474;9.894;2022-09-09T12:37:40;0.52;;;0.52;;
12818;SDS011;6474;53.474;9.894;2022-09-09T12:40:19;0.60;;;0.60;;
12818;SDS011;6474;53.474;9.894;2022-09-09T12:42:48;0.50;;;0.50;;
12818;SDS011;6474;53.474;9.894;2022-09-09T12:45:16;0.90;;;0.90;;
12818;SDS011;6474;53.474;9.894;2022-09-09T12:47:47;0.70;;;0.70;;
12818;SDS011;6474;53.474;9.894;2022-09-09T12:50:21;0.85;;;0.85;;
12818;SDS011;6474;53.474;9.894;2022-09-09T12:52:52;0.70;;;0.70;;
12818;SDS011;6474;53.474;9.894;2022-09-09T12:55:24;1.05;;;1.05;;
12818;SDS011;6474;53.474;9.894;2022-09-09T12:57:56;1.00;;;1.00;;
12818;SDS011;6474;53.474;9.894;2022-09-09T13:00:25;0.70;;;0.70;;
12818;SDS011;6474;53.474;9.894;2022-09-09T13:02:55;0.60;;;0.60;;
12818;SDS011;6474;53.474;9.894;2022-09-09T13:05:26;0.65;;;0.55;;
12818;SDS011;6474;53.474;9.894;2022-09-09T13:08:00;0.15;;;0.15;;
12818;SDS011;6474;53.474;9.894;2022-09-09T13:10:29;1.48;;;0.32;;
12818;SDS011;6474;53.474;9.894;2022-09-09T13:13:18;0.47;;;0.47;;
12818;SDS011;6474;53.474;9.894;2022-09-09T13:15:49;1.65;;;0.50;;
12818;SDS011;6474;53.474;9.894;2022-09-09T13:18:18;0.45;;;0.45;;
12818;SDS011;6474;53.474;9.894;2022-09-09T13:20:50;0.50;;;0.50;;
12818;SDS011;6474;53.474;9.894;2022-09-09T13:23:19;2.80;;;0.63;;
12818;SDS011;6474;53.474;9.894;2022-09-09T13:25:54;0.80;;;0.80;;
12818;SDS011;6474;53.474;9.894;2022-09-09T13:28:24;0.60;;;0.60;;
12818;SDS011;6474;53.474;9.894;2022-09-09T13:30:59;0.60;;;0.60;;
12818;SDS011;6474;53.474;9.894;2022-09-09T13:33:30;0.77;;;0.77;;
12818;SDS011;6474;53.474;9.894;2022-09-09T13:36:02;0.70;;;0.70;;
12818;SDS011;6474;53.474;9.894;2022-09-09T13:38:32;0.80;;;0.80;;
12818;SDS011;6474;53.474;9.894;2022-09-09T13:41:03;1.27;;;1.10;;
12818;SDS011;6474;53.474;9.894;2022-09-09T13:43:34;0.97;;;0.97;;
12818;SDS011;6474;53.474;9.894;2022-09-09T13:46:06;0.90;;;0.90;;
12818;SDS011;6474;53.474;9.894;2022-09-09T13:48:55;1.23;;;1.13;;
12818;SDS011;6474;53.474;9.894;2022-09-09T13:51:32;1.00;;;1.00;;
12818;SDS011;6474;53.474;9.894;2022-09-09T13:54:03;0.87;;;0.87;;
12818;SDS011;6474;53.474;9.894;2022-09-09T13:56:32;0.90;;;0.90;;
12818;SDS011;6474;53.474;9.894;2022-09-09T13:59:01;1.03;;;1.03;;
12818;SDS011;6474;53.474;9.894;2022-09-09T14:01:30;1.30;;;1.20;;
12818;SDS011;6474;53.474;9.894;2022-09-09T14:03:59;1.00;;;1.00;;
12818;SDS011;6474;53.474;9.894;2022-09-09T14:06:26;1.10;;;1.10;;
12818;SDS011;6474;53.474;9.894;2022-09-09T14:08:56;0.90;;;0.90;;
12818;SDS011;6474;53.474;9.894;2022-09-09T14:11:24;1.33;;;1.13;;
12818;SDS011;6474;53.474;9.894;2022-09-09T14:13:51;1.00;;;1.00;;
12818;SDS011;6474;53.474;9.894;2022-09-09T14:16:19;1.40;;;1.40;;
12818;SDS011;6474;53.474;9.894;2022-09-09T14:18:47;1.37;;;1.20;;
12818;SDS011;6474;53.474;9.894;2022-09-09T14:21:15;1.10;;;1.10;;
12818;SDS011;6474;53.474;9.894;2022-09-09T14:23:44;1.10;;;1.10;;
12818;SDS011;6474;53.474;9.894;2022-09-09T14:26:13;1.07;;;1.07;;
12818;SDS011;6474;53.474;9.894;2022-09-09T14:28:41;1.25;;;1.23;;
12818;SDS011;6474;53.474;9.894;2022-09-09T14:31:25;0.90;;;0.90;;
12818;SDS011;6474;53.474;9.894;2022-09-09T14:33:52;1.00;;;1.00;;
12818;SDS011;6474;53.474;9.894;2022-09-09T14:36:20;1.00;;;1.00;;
12818;SDS011;6474;53.474;9.894;2022-09-09T14:38:48;1.20;;;1.20;;
12818;SDS011;6474;53.474;9.894;2022-09-09T14:41:18;1.10;;;1.10;;
12818;SDS011;6474;53.474;9.894;2022-09-09T14:43:48;0.93;;;0.93;;
12818;SDS011;6474;53.474;9.894;2022-09-09T14:46:16;0.80;;;0.80;;
12818;SDS011;6474;53.474;9.894;2022-09-09T14:48:46;0.87;;;0.87;;
12818;SDS011;6474;53.474;9.894;2022-09-09T14:51:15;1.00;;;1.00;;
12818;SDS011;6474;53.474;9.894;2022-09-09T14:53:45;1.20;;;1.20;;
12818;SDS011;6474;53.474;9.894;2022-09-09T14:56:14;0.95;;;0.95;;
12818;SDS011;6474;53.474;9.894;2022-09-09T14:58:45;1.20;;;1.20;;
12818;SDS011;6474;53.474;9.894;2022-09-09T15:01:15;1.00;;;1.00;;
12818;SDS011;6474;53.474;9.894;2022-09-09T15:03:48;1.17;;;1.17;;
12818;SDS011;6474;53.474;9.894;2022-09-09T15:06:17;0.97;;;0.97;;
12818;SDS011;6474;53.474;9.894;2022-09-09T15:08:45;1.23;;;1.23;;
12818;SDS011;6474;53.474;9.894;2022-09-09T15:11:14;1.00;;;1.00;;
12818;SDS011;6474;53.474;9.894;2022-09-09T15:13:42;1.00;;;1.00;;
12818;SDS011;6474;53.474;9.894;2022-09-09T15:16:12;1.00;;;1.00;;
12818;SDS011;6474;53.474;9.894;2022-09-09T15:18:41;1.00;;;1.00;;
12818;SDS011;6474;53.474;9.894;2022-09-09T15:21:11;0.77;;;0.77;;
12818;SDS011;6474;53.474;9.894;2022-09-09T15:23:39;1.23;;;1.23;;
12818;SDS011;6474;53.474;9.894;2022-09-09T15:26:07;0.80;;;0.80;;
12818;SDS011;6474;53.474;9.894;2022-09-09T15:28:37;0.80;;;0.80;;
12818;SDS011;6474;53.474;9.894;2022-09-09T15:31:07;0.80;;;0.80;;
12818;SDS011;6474;53.474;9.894;2022-09-09T15:33:38;0.80;;;0.80;;
12818;SDS011;6474;53.474;9.894;2022-09-09T15:36:14;0.80;;;0.80;;
12818;SDS011;6474;53.474;9.894;2022-09-09T15:38:43;0.80;;;0.80;;